Time;durP1;ratioP1;P1;durP2;ratioP2;P2;SDS_P1;SDS_P2;PMS_P1;PMS_P2;Temp;Humidity;BMP_temperature;BMP_pressure;BME280_temperature;BME280_humidity;BME280_pressure;Samples;Min_cycle;Max_cycle;Signal;HPM_P1;HPM_P2
2023/05/17 00:00:34;;;;;;;22.90;10.00;;;;;;;14.31;100.00;100699.25;105698;1258;76519;-51
2023/05/17 00:03:02;;;;;;;21.60;9.40;;;;;;;14.31;100.00;100704.30;105719;1253;67710;-51
2023/05/17 00:05:29;;;;;;;25.20;9.50;;;;;;;14.32;100.00;100703.58;105726;1258;74402;-50
2023/05/17 00:07:56;;;;;;;24.00;10.50;;;;;;;14.32;100.00;100707.04;105903;1258;62843;-51
2023/05/17 00:10:23;;;;;;;24.80;10.30;;;;;;;14.33;100.00;100713.79;105889;1257;62790;-55
2023/05/17 00:12:50;;;;;;;20.10;8.50;;;;;;;14.33;100.00;100709.09;105706;1255;76485;-52
2023/05/17 00:15:17;;;;;;;17.90;8.80;;;;;;;14.34;100.00;100700.56;105739;1254;67448;-54
2023/05/17 00:17:44;;;;;;;16.70;7.10;;;;;;;14.35;100.00;100692.52;105687;1258;76258;-52
2023/05/17 00:20:12;;;;;;;20.60;8.00;;;;;;;14.38;100.00;100693.67;105697;1260;63133;-52
2023/05/17 00:22:39;;;;;;;20.80;7.20;;;;;;;14.41;100.00;100691.85;105832;1255;63124;-52
2023/05/17 00:25:07;;;;;;;17.10;7.00;;;;;;;14.46;100.00;100697.60;105886;1258;76294;-52
2023/05/17 00:27:35;;;;;;;14.00;7.10;;;;;;;14.50;100.00;100700.06;105758;1251;66803;-52
2023/05/17 00:30:02;;;;;;;15.20;7.50;;;;;;;14.54;100.00;100706.40;105758;1259;74996;-51
2023/05/17 00:32:29;;;;;;;12.80;7.30;;;;;;;14.57;100.00;100709.95;105714;1256;63337;-51
2023/05/17 00:34:56;;;;;;;20.50;8.40;;;;;;;14.60;100.00;100715.76;105704;1257;61799;-53
2023/05/17 00:37:23;;;;;;;21.20;8.50;;;;;;;14.62;100.00;100722.09;105675;1254;75346;-57
2023/05/17 00:39:51;;;;;;;17.80;6.60;;;;;;;14.64;100.00;100728.63;105655;1254;66752;-51
2023/05/17 00:42:19;;;;;;;15.90;7.20;;;;;;;14.67;100.00;100740.89;105701;1260;75473;-50
2023/05/17 00:44:46;;;;;;;12.40;7.10;;;;;;;14.69;100.00;100747.25;105643;1259;61872;-50
2023/05/17 00:47:13;;;;;;;13.80;7.60;;;;;;;14.71;100.00;100758.16;105651;1266;62075;-51
2023/05/17 00:49:40;;;;;;;17.60;7.20;;;;;;;14.72;100.00;100751.36;105647;1259;75361;-51
2023/05/17 00:52:08;;;;;;;15.20;6.40;;;;;;;14.72;100.00;100749.63;105646;1259;67500;-51
2023/05/17 00:54:35;;;;;;;18.00;6.40;;;;;;;14.71;100.00;100746.35;105676;1254;73498;-52
2023/05/17 00:57:02;;;;;;;15.60;6.40;;;;;;;14.69;100.00;100752.11;105672;1260;61527;-52
2023/05/17 00:59:32;;;;;;;12.50;5.50;;;;;;;14.69;100.00;100761.32;105669;1260;62102;-51
2023/05/17 01:02:00;;;;;;;15.00;6.50;;;;;;;14.70;100.00;100771.02;105680;1253;75660;-52
2023/05/17 01:04:27;;;;;;;16.50;6.80;;;;;;;14.71;100.00;100780.40;105667;1260;67106;-52
2023/05/17 01:06:55;;;;;;;16.30;6.80;;;;;;;14.71;100.00;100785.61;105616;1259;74554;-52
2023/05/17 01:09:22;;;;;;;13.20;6.90;;;;;;;14.70;100.00;100788.76;105702;1255;62844;-52
2023/05/17 01:12:31;;;;;;;11.20;5.40;;;;;;;14.66;100.00;100781.71;105639;1260;63162;-52
2023/05/17 01:15:16;;;;;;;18.40;5.90;;;;;;;14.63;100.00;100773.81;105340;1261;75466;-52
2023/05/17 01:17:55;;;;;;;13.30;5.80;;;;;;;14.58;100.00;100765.98;105702;1259;67500;-51
2023/05/17 01:20:27;;;;;;;12.90;5.70;;;;;;;14.55;100.00;100762.97;105672;1259;74404;-52
2023/05/17 01:23:30;;;;;;;13.20;5.40;;;;;;;14.51;100.00;100766.87;105682;1254;61912;-52
2023/05/17 01:26:05;;;;;;;8.20;4.40;;;;;;;14.49;100.00;100773.37;105662;1259;63213;-51
2023/05/17 01:28:33;;;;;;;11.80;5.00;;;;;;;14.50;100.00;100774.39;105642;1259;75261;-50
2023/05/17 01:31:01;;;;;;;11.90;5.30;;;;;;;14.50;100.00;100773.15;105629;1259;67265;-50
2023/05/17 01:33:29;;;;;;;12.90;4.20;;;;;;;14.49;100.00;100773.89;105650;1258;74477;-51
2023/05/17 01:35:57;;;;;;;13.50;3.80;;;;;;;14.50;100.00;100778.02;105656;1260;62677;-51
2023/05/17 01:38:24;;;;;;;13.60;4.00;;;;;;;14.53;100.00;100785.42;105611;1254;62729;-50
2023/05/17 01:40:57;;;;;;;7.00;4.30;;;;;;;14.54;100.00;100792.70;105599;1259;76013;-50
2023/05/17 01:43:50;;;;;;;6.80;3.10;;;;;;;14.55;100.00;100800.31;105626;1255;67452;-50
2023/05/17 01:46:38;;;;;;;5.00;3.20;;;;;;;14.59;100.00;100811.80;105448;1260;75152;-50
2023/05/17 01:49:15;;;;;;;10.00;3.50;;;;;;;14.62;100.00;100808.73;105648;1258;63060;-51
2023/05/17 01:51:57;;;;;;;6.40;3.40;;;;;;;14.63;100.00;100808.55;105655;1259;62103;-51
2023/05/17 01:54:30;;;;;;;7.70;3.30;;;;;;;14.64;100.00;100813.91;105644;1260;76665;-52
2023/05/17 01:56:58;;;;;;;8.30;3.60;;;;;;;14.67;100.00;100818.02;105673;1260;67111;-52
2023/05/17 01:59:25;;;;;;;7.70;3.60;;;;;;;14.69;100.00;100815.69;105621;1259;74557;-52
2023/05/17 02:02:02;;;;;;;9.40;3.30;;;;;;;14.69;100.00;100815.51;105491;1264;61664;-52
2023/05/17 02:04:29;;;;;;;13.20;3.90;;;;;;;14.70;100.00;100812.38;105650;1259;61701;-52
2023/05/17 02:06:59;;;;;;;11.90;3.70;;;;;;;14.71;100.00;100819.48;105642;1260;76585;-52
2023/05/17 02:09:26;;;;;;;11.50;3.00;;;;;;;14.71;100.00;100818.27;105639;1259;66696;-52
2023/05/17 02:11:53;;;;;;;13.90;3.40;;;;;;;14.74;100.00;100824.23;105611;1254;73782;-52
2023/05/17 02:14:20;;;;;;;9.90;3.10;;;;;;;14.76;100.00;100820.90;105589;1257;62093;-52
2023/05/17 02:16:47;;;;;;;5.30;3.00;;;;;;;14.77;100.00;100824.51;105645;1254;62542;-52
2023/05/17 02:19:14;;;;;;;10.10;3.20;;;;;;;14.78;100.00;100823.77;105638;1259;76341;-52
2023/05/17 02:21:41;;;;;;;7.40;3.20;;;;;;;14.81;100.00;100828.56;105649;1259;65616;-52
2023/05/17 02:24:08;;;;;;;8.10;3.40;;;;;;;14.84;100.00;100832.46;105636;1259;75408;-51
2023/05/17 02:26:36;;;;;;;8.70;3.00;;;;;;;14.88;100.00;100836.52;105637;1255;61132;-49
2023/05/17 02:29:03;;;;;;;9.30;3.10;;;;;;;14.90;100.00;100836.63;105680;1260;63106;-52
2023/05/17 02:31:30;;;;;;;13.80;3.30;;;;;;;14.91;100.00;100837.13;105677;1257;76658;-52
2023/05/17 02:33:57;;;;;;;6.00;3.20;;;;;;;14.91;100.00;100835.37;105663;1258;67302;-52
2023/05/17 02:36:24;;;;;;;4.40;3.20;;;;;;;14.92;100.00;100833.77;105655;1260;75122;-52
2023/05/17 02:38:51;;;;;;;8.60;2.80;;;;;;;14.95;100.00;100836.82;105680;1259;62880;-52
2023/05/17 02:41:18;;;;;;;8.70;3.40;;;;;;;14.97;100.00;100836.94;105683;1260;62156;-51
2023/05/17 02:43:45;;;;;;;13.40;3.90;;;;;;;15.00;100.00;100838.59;105674;1258;76014;-51
2023/05/17 02:46:12;;;;;;;9.90;3.70;;;;;;;15.02;100.00;100841.29;105652;1255;66573;-51
2023/05/17 02:48:39;;;;;;;8.70;3.60;;;;;;;15.05;100.00;100847.48;105687;1255;73714;-52
2023/05/17 02:51:06;;;;;;;16.10;3.60;;;;;;;15.07;100.00;100848.96;105688;1255;61511;-52
2023/05/17 02:53:34;;;;;;;4.30;3.60;;;;;;;15.10;100.00;100856.19;105665;1254;63132;-52
2023/05/17 02:56:02;;;;;;;9.20;3.20;;;;;;;15.13;100.00;100852.11;105640;1260;75287;-52
2023/05/17 02:58:29;;;;;;;9.80;3.50;;;;;;;15.16;100.00;100858.95;105652;1255;67178;-52
2023/05/17 03:00:56;;;;;;;12.40;3.40;;;;;;;15.20;100.00;100864.92;105651;1254;75519;-53
2023/05/17 03:03:24;;;;;;;9.10;3.30;;;;;;;15.25;100.00;100870.85;105618;1254;63011;-53
2023/05/17 03:05:51;;;;;;;10.10;3.50;;;;;;;15.29;100.00;100872.63;105714;1259;62078;-52
2023/05/17 03:08:18;;;;;;;10.50;4.10;;;;;;;15.34;100.00;100881.86;105656;1254;75659;-52
2023/05/17 03:10:46;;;;;;;14.50;3.80;;;;;;;15.40;100.00;100887.61;105699;1258;66042;-52
2023/05/17 03:13:13;;;;;;;7.30;3.60;;;;;;;15.45;100.00;100893.17;105680;1257;74593;-52
2023/05/17 03:15:41;;;;;;;15.30;3.60;;;;;;;15.51;100.00;100899.09;105704;1254;62254;-50
2023/05/17 03:18:08;;;;;;;11.70;3.70;;;;;;;15.55;100.00;100908.86;105692;1254;62947;-49
2023/05/17 03:20:37;;;;;;;10.60;3.90;;;;;;;15.60;100.00;100909.58;105654;1257;74554;-50
2023/05/17 03:23:05;;;;;;;6.60;3.80;;;;;;;15.66;100.00;100919.64;105685;1254;67600;-51
2023/05/17 03:25:35;;;;;;;7.70;4.00;;;;;;;15.70;100.00;100920.54;105625;1254;73449;-49
2023/05/17 03:28:03;;;;;;;17.00;4.10;;;;;;;15.76;100.00;100926.97;105636;1254;62190;-50
2023/05/17 03:30:30;;;;;;;9.40;3.70;;;;;;;15.82;100.00;100938.42;105675;1270;61691;-50
2023/05/17 03:32:57;;;;;;;21.70;3.90;;;;;;;15.88;100.00;100943.13;105556;1254;75342;-50
2023/05/17 03:35:25;;;;;;;19.40;4.00;;;;;;;15.93;100.00;100950.29;105630;1260;66418;-50
2023/05/17 03:37:54;;;;;;;11.70;4.30;;;;;;;15.98;100.00;100952.90;105656;1259;75485;-50
2023/05/17 03:40:22;;;;;;;18.90;3.90;;;;;;;16.02;100.00;100963.39;105675;1254;61094;-50
2023/05/17 03:42:50;;;;;;;18.30;4.60;;;;;;;16.06;100.00;100969.19;105629;1260;62166;-52
2023/05/17 03:45:17;;;;;;;14.10;4.60;;;;;;;16.11;100.00;100978.27;105683;1258;76733;-50
2023/05/17 03:47:45;;;;;;;18.80;4.70;;;;;;;16.15;100.00;100976.56;105614;1254;67374;-50
2023/05/17 03:50:12;;;;;;;17.50;5.00;;;;;;;16.19;100.00;100980.25;105610;1258;73859;-50
2023/05/17 03:52:40;;;;;;;14.10;4.00;;;;;;;16.22;100.00;100982.41;105678;1254;61864;-50
2023/05/17 03:55:08;;;;;;;12.20;4.60;;;;;;;16.27;100.00;100992.88;105672;1259;62190;-50
2023/05/17 03:57:35;;;;;;;13.00;4.80;;;;;;;16.29;100.00;101000.30;105647;1254;75549;-50
2023/05/17 04:00:10;;;;;;;18.20;5.20;;;;;;;16.31;100.00;101003.88;105647;1254;66149;-50
2023/05/17 04:02:40;;;;;;;9.80;4.20;;;;;;;16.34;100.00;101007.61;105683;1258;74179;-49
2023/05/17 04:05:08;;;;;;;15.30;4.70;;;;;;;16.37;100.00;101007.14;105670;1254;63122;-50
2023/05/17 04:07:35;;;;;;;11.40;4.20;;;;;;;16.41;100.00;101017.32;105626;1259;62984;-50
2023/05/17 04:10:03;;;;;;;20.10;4.90;;;;;;;16.46;100.00;101018.90;105603;1260;76551;-50
2023/05/17 04:12:30;;;;;;;22.90;4.60;;;;;;;16.51;100.00;101013.82;105611;1254;65938;-50
2023/05/17 04:14:57;;;;;;;11.40;5.30;;;;;;;16.56;100.00;101017.84;105617;1259;75522;-50
2023/05/17 04:17:24;;;;;;;11.00;5.00;;;;;;;16.63;100.00;101025.23;105611;1257;61834;-50
2023/05/17 04:19:52;;;;;;;15.80;4.80;;;;;;;16.70;100.00;101039.33;105672;1260;61671;-50
2023/05/17 04:22:20;;;;;;;16.90;5.20;;;;;;;16.76;100.00;101049.20;105619;1254;75110;-51
2023/05/17 04:24:48;;;;;;;11.10;4.80;;;;;;;16.85;100.00;101052.39;105669;1259;66831;-50
2023/05/17 04:27:15;;;;;;;17.10;5.50;;;;;;;16.92;100.00;101055.09;105653;1259;75184;-50
2023/05/17 04:29:43;;;;;;;15.50;5.00;;;;;;;16.99;100.00;101059.23;105688;1260;61844;-50
2023/05/17 04:32:10;;;;;;;16.50;5.30;;;;;;;17.04;100.00;101059.93;105663;1254;63068;-50
2023/05/17 04:34:37;;;;;;;13.90;5.20;;;;;;;17.11;100.00;101067.00;105658;1260;76544;-50
2023/05/17 04:37:04;;;;;;;17.20;5.30;;;;;;;17.18;100.00;101064.68;105691;1254;65300;-50
2023/05/17 04:39:32;;;;;;;22.80;5.70;;;;;;;17.21;100.00;101057.76;105692;1254;74663;-50
2023/05/17 04:42:00;;;;;;;11.60;5.80;;;;;;;17.26;100.00;101067.20;105649;1260;63145;-50
2023/05/17 04:44:27;;;;;;;14.40;5.80;;;;;;;17.30;100.00;101067.55;105712;1261;63109;-50
2023/05/17 04:46:54;;;;;;;21.10;5.70;;;;;;;17.35;100.00;101073.48;105674;1257;76090;-53
2023/05/17 04:49:23;;;;;;;15.00;5.70;;;;;;;17.40;100.00;101070.50;105582;1254;66687;-51
2023/05/17 04:51:51;;;;;;;16.50;5.50;;;;;;;17.43;100.00;101073.35;105576;1257;74471;-51
2023/05/17 04:54:18;;;;;;;11.40;5.00;;;;;;;17.44;100.00;101075.77;105553;1254;62812;-51
2023/05/17 04:56:46;;;;;;;11.30;5.70;;;;;;;17.44;100.00;101086.23;105680;1257;61646;-52
2023/05/17 04:59:19;;;;;;;19.20;5.00;;;;;;;17.43;100.00;101085.38;105651;1257;76821;-52
2023/05/17 05:01:47;;;;;;;15.30;4.90;;;;;;;17.42;99.29;101093.80;105682;1254;66264;-52
2023/05/17 05:04:14;;;;;;;19.00;5.10;;;;;;;17.40;97.41;101096.65;105696;1254;74475;-51
2023/05/17 05:06:42;;;;;;;14.60;5.00;;;;;;;17.40;98.45;101099.83;105665;1254;63287;-51
2023/05/17 05:09:09;;;;;;;19.10;5.30;;;;;;;17.39;100.00;101110.13;105661;1254;61883;-51
2023/05/17 05:11:37;;;;;;;17.70;4.60;;;;;;;17.38;100.00;101109.80;105696;1257;76509;-51
2023/05/17 05:14:04;;;;;;;28.30;4.90;;;;;;;17.41;97.98;101100.14;105693;1254;67689;-51
2023/05/17 05:16:31;;;;;;;18.70;5.20;;;;;;;17.43;99.57;101107.02;105649;1259;75568;-51
2023/05/17 05:18:58;;;;;;;21.90;5.20;;;;;;;17.48;99.31;101109.65;105628;1259;61486;-51
2023/05/17 05:21:26;;;;;;;20.40;5.20;;;;;;;17.49;98.91;101108.70;105563;1256;63055;-52
2023/05/17 05:23:53;;;;;;;16.80;5.40;;;;;;;17.51;98.16;101109.70;105636;1260;76770;-51
2023/05/17 05:26:20;;;;;;;17.10;5.00;;;;;;;17.51;100.00;101115.08;105599;1260;67350;-51
2023/05/17 05:28:48;;;;;;;21.40;6.20;;;;;;;17.53;99.02;101107.33;105592;1258;73605;-51
2023/05/17 05:31:15;;;;;;;17.80;5.50;;;;;;;17.56;99.51;101106.73;105572;1260;62765;-51
2023/05/17 05:33:47;;;;;;;14.70;5.40;;;;;;;17.59;100.00;101108.36;105588;1258;63221;-51
2023/05/17 05:36:14;;;;;;;36.50;7.10;;;;;;;17.64;100.00;101108.02;105594;1257;75511;-51
2023/05/17 05:38:41;;;;;;;28.30;6.10;;;;;;;17.71;100.00;101103.19;105593;1256;67076;-51
2023/05/17 05:41:08;;;;;;;22.80;6.40;;;;;;;17.78;99.39;101101.35;105605;1260;74165;-52
2023/05/17 05:43:36;;;;;;;15.20;5.50;;;;;;;17.87;97.80;101094.36;105677;1255;62915;-51
2023/05/17 05:46:04;;;;;;;22.40;5.60;;;;;;;17.96;92.55;101090.20;105652;1256;62799;-51
2023/05/17 05:48:31;;;;;;;16.20;5.90;;;;;;;18.05;84.55;101083.20;105658;1257;75585;-51
2023/05/17 05:50:59;;;;;;;27.50;5.60;;;;;;;18.19;79.61;101080.96;105728;1254;66296;-51
2023/05/17 05:53:26;;;;;;;31.10;4.90;;;;;;;18.34;80.08;101088.01;105614;1255;75724;-51
2023/05/17 05:55:54;;;;;;;39.60;6.10;;;;;;;18.53;75.19;101073.98;105600;1256;63090;-51
2023/05/17 05:58:21;;;;;;;24.40;5.70;;;;;;;18.71;72.14;101069.00;105596;1260;61670;-52
2023/05/17 06:00:49;;;;;;;18.70;5.30;;;;;;;18.92;72.37;101077.05;105620;1258;74579;-51
2023/05/17 06:03:16;;;;;;;19.20;5.60;;;;;;;19.11;67.42;101039.33;105498;1256;65342;-52
2023/05/17 06:05:43;;;;;;;11.70;4.50;;;;;;;19.24;65.04;101030.85;105350;1256;74571;-51
2023/05/17 06:08:10;;;;;;;26.00;5.50;;;;;;;19.42;63.53;101024.45;105618;1256;61792;-52
2023/05/17 06:10:37;;;;;;;64.40;9.20;;;;;;;19.64;63.22;101028.31;105631;1259;61898;-52
2023/05/17 06:13:04;;;;;;;20.10;5.80;;;;;;;19.87;60.13;100984.70;105631;1257;76229;-51
2023/05/17 06:15:32;;;;;;;21.30;4.80;;;;;;;20.04;59.56;100989.30;105601;1256;67293;-51
2023/05/17 06:17:59;;;;;;;15.60;4.80;;;;;;;20.27;59.63;101005.67;105602;1258;73813;-51
2023/05/17 06:20:26;;;;;;;18.10;4.40;;;;;;;20.52;59.67;101018.61;105616;1256;62090;-50
2023/05/17 06:22:54;;;;;;;12.80;4.70;;;;;;;20.80;58.87;101001.24;105698;1259;62184;-51
2023/05/17 06:25:21;;;;;;;10.70;4.60;;;;;;;21.00;57.50;100972.48;105633;1258;76366;-50
2023/05/17 06:27:48;;;;;;;16.20;4.80;;;;;;;21.15;56.33;100951.86;105635;1254;66189;-50
2023/05/17 06:30:15;;;;;;;18.00;4.30;;;;;;;21.28;56.42;100967.98;105574;1256;74192;-51
2023/05/17 06:32:42;;;;;;;13.10;4.10;;;;;;;21.43;55.63;100954.33;105623;1254;63178;-51
2023/05/17 06:35:10;;;;;;;11.60;4.80;;;;;;;21.57;55.34;100965.65;105616;1259;62873;-51
2023/05/17 06:37:37;;;;;;;16.30;4.30;;;;;;;21.70;55.29;100977.30;105681;1253;75418;-51
2023/05/17 06:40:07;;;;;;;8.00;4.10;;;;;;;21.81;54.86;100966.83;105683;1254;66862;-51
2023/05/17 06:42:42;;;;;;;12.10;4.10;;;;;;;21.91;53.64;100927.77;105647;1254;74378;-51
2023/05/17 06:45:11;;;;;;;18.30;4.30;;;;;;;21.97;53.82;100951.45;105628;1254;62317;-52
2023/05/17 06:47:38;;;;;;;15.70;4.20;;;;;;;22.08;53.58;100944.90;105629;1254;62459;-52
2023/05/17 06:50:07;;;;;;;19.40;4.50;;;;;;;22.23;52.85;100919.23;105596;1254;76014;-52
2023/05/17 06:52:35;;;;;;;17.90;4.50;;;;;;;22.33;51.20;100851.63;105639;1259;67522;-52
2023/05/17 06:55:02;;;;;;;20.70;4.70;;;;;;;22.38;51.50;100882.79;105678;1259;75255;-52
2023/05/17 06:57:30;;;;;;;18.10;5.10;;;;;;;22.46;49.56;100777.36;105665;1255;62729;-52
2023/05/17 06:59:59;;;;;;;16.30;4.80;;;;;;;22.50;49.26;100770.80;105607;1254;62314;-52
2023/05/17 07:02:29;;;;;;;15.70;4.40;;;;;;;22.58;50.39;100871.59;105617;1254;76147;-52
2023/05/17 07:05:00;;;;;;;16.00;4.20;;;;;;;22.68;49.31;100799.70;105637;1254;65851;-52
2023/05/17 07:07:28;;;;;;;10.20;4.60;;;;;;;22.78;49.48;100833.02;105628;1256;74879;-52
2023/05/17 07:09:55;;;;;;;9.30;4.40;;;;;;;22.92;48.18;100742.59;105608;1254;62554;-52
2023/05/17 07:12:22;;;;;;;15.20;4.60;;;;;;;22.94;47.94;100735.41;105641;1259;61947;-51
2023/05/17 07:14:49;;;;;;;14.40;5.10;;;;;;;22.92;48.36;100795.04;105655;1259;75914;-52
2023/05/17 07:17:16;;;;;;;9.60;4.60;;;;;;;22.97;48.05;100783.27;105648;1254;66650;-51
2023/05/17 07:19:43;;;;;;;14.10;5.30;;;;;;;23.01;47.81;100760.33;105603;1256;74920;-52
2023/05/17 07:22:11;;;;;;;15.10;5.50;;;;;;;23.11;48.84;100853.79;105663;1259;61651;-53
2023/05/17 07:24:38;;;;;;;16.80;4.90;;;;;;;23.30;48.84;100856.12;105669;1254;60770;-52
2023/05/17 07:27:05;;;;;;;16.20;4.50;;;;;;;23.51;48.41;100819.02;105624;1258;76017;-52
2023/05/17 07:29:32;;;;;;;13.30;4.80;;;;;;;23.65;47.64;100760.27;105625;1254;67262;-52
2023/05/17 07:31:59;;;;;;;17.40;4.70;;;;;;;23.75;47.35;100745.19;105610;1254;75267;-52
2023/05/17 07:34:26;;;;;;;8.40;4.30;;;;;;;23.89;47.33;100754.44;105652;1254;62858;-52
2023/05/17 07:36:54;;;;;;;8.60;4.10;;;;;;;24.04;45.88;100620.14;105434;1259;335971;-52
2023/05/17 07:40:38;;;;;;;12.00;4.00;;;;;;;24.33;45.26;100571.70;102742;1293;600939;-52
2023/05/17 07:43:05;;;;;;;15.90;3.80;;;;;;;24.54;44.31;100477.05;104915;1270;62703;-50
2023/05/17 07:45:32;;;;;;;33.00;4.80;;;;;;;24.87;44.03;100468.17;104948;1265;62621;-51
2023/05/17 07:48:00;;;;;;;18.40;4.00;;;;;;;25.20;42.73;100345.52;104892;1270;73140;-51
2023/05/17 07:50:28;;;;;;;13.80;4.00;;;;;;;25.49;42.14;100273.71;104917;1269;67503;-51
2023/05/17 07:52:55;;;;;;;12.60;4.10;;;;;;;25.77;40.81;100136.98;104856;1271;74940;-50
2023/05/17 07:55:22;;;;;;;9.20;3.80;;;;;;;25.91;40.12;100033.05;104998;1267;217080;-50
2023/05/17 07:57:49;;;;;;;9.80;3.00;;;;;;;26.00;38.73;99900.04;105164;1267;62660;-51
2023/05/17 08:00:18;;;;;;;16.10;3.60;;;;;;;26.04;39.54;99969.72;105183;1270;73824;-51
2023/05/17 08:02:45;;;;;;;5.30;3.10;;;;;;;26.18;37.06;99748.48;105208;1267;67514;-51
2023/05/17 08:05:12;;;;;;;20.90;3.80;;;;;;;26.17;35.66;99536.36;105253;1266;74270;-50
2023/05/17 08:07:39;;;;;;;11.60;3.60;;;;;;;26.09;36.66;99647.15;105206;1260;61356;-51
2023/05/17 08:10:07;;;;;;;15.00;3.50;;;;;;;26.14;36.64;99671.84;105232;1260;62792;-51
2023/05/17 08:12:34;;;;;;;18.70;3.30;;;;;;;26.09;35.66;99588.29;105261;1269;75600;-50
2023/05/17 08:15:01;;;;;;;4.90;2.40;;;;;;;26.01;35.42;99552.12;105268;1267;66853;-52
2023/05/17 08:17:29;;;;;;;15.00;2.80;;;;;;;25.91;34.13;99431.73;105654;1261;74856;-51
2023/05/17 08:19:56;;;;;;;12.00;2.40;;;;;;;25.75;34.13;99424.43;105617;1257;61690;-51
2023/05/17 08:22:23;;;;;;;8.00;2.20;;;;;;;25.65;33.85;99382.36;105628;1263;62167;-51
2023/05/17 08:24:51;;;;;;;10.60;1.90;;;;;;;25.55;32.79;99284.13;105889;1256;75323;-51
2023/05/17 08:27:18;;;;;;;6.80;1.70;;;;;;;25.37;32.86;99280.95;105962;1256;66775;-51
2023/05/17 08:29:45;;;;;;;12.80;1.80;;;;;;;25.31;34.11;99416.39;105932;1253;74157;-51
2023/05/17 08:32:12;;;;;;;5.30;1.50;;;;;;;25.45;34.08;99441.48;105875;1254;61805;-51
2023/05/17 08:34:39;;;;;;;10.60;1.70;;;;;;;25.63;33.34;99365.81;105886;1257;62099;-52
2023/05/17 08:37:06;;;;;;;10.00;2.10;;;;;;;25.73;34.19;99443.06;105968;1258;73803;-51
2023/05/17 08:39:34;;;;;;;10.90;1.80;;;;;;;25.98;35.12;99557.73;105916;1257;66780;-52
2023/05/17 08:42:01;;;;;;;8.70;1.70;;;;;;;26.28;34.84;99571.45;105917;1254;74325;-52
2023/05/17 08:44:28;;;;;;;7.00;2.10;;;;;;;26.46;34.04;99467.83;105871;1251;63041;-52
2023/05/17 08:46:55;;;;;;;9.60;2.40;;;;;;;26.55;34.19;99479.98;105876;1251;63086;-52
2023/05/17 08:49:24;;;;;;;7.80;2.70;;;;;;;26.61;34.98;99563.42;105704;1259;73851;-50
2023/05/17 08:51:55;;;;;;;13.20;2.20;;;;;;;26.77;34.54;99548.98;105739;1253;66270;-52
2023/05/17 08:54:22;;;;;;;6.40;2.30;;;;;;;26.91;34.04;99486.02;105843;1251;75612;-53
2023/05/17 08:56:51;;;;;;;19.40;2.50;;;;;;;26.92;33.48;99414.56;105852;1254;61546;-53
2023/05/17 08:59:18;;;;;;;67.10;4.30;;;;;;;26.94;33.18;99385.91;105643;1254;62659;-52
2023/05/17 09:01:48;;;;;;;7.10;2.20;;;;;;;26.90;32.85;99307.89;105835;1251;74807;-55
2023/05/17 09:04:16;;;;;;;7.20;2.30;;;;;;;26.90;32.71;99303.34;105704;1259;67157;-55
2023/05/17 09:06:43;;;;;;;14.30;2.30;;;;;;;26.94;33.22;99347.13;105897;1254;74434;-53
2023/05/17 09:09:10;;;;;;;8.80;2.50;;;;;;;27.01;33.42;99383.70;105965;1254;61246;-54
2023/05/17 09:11:37;;;;;;;8.50;2.20;;;;;;;27.05;33.46;99386.51;105827;1250;62878;-55
2023/05/17 09:14:05;;;;;;;55.30;4.20;;;;;;;27.03;33.00;99347.04;105749;1257;74488;-51
2023/05/17 09:16:34;;;;;;;12.70;2.30;;;;;;;27.05;33.38;99374.19;105865;1251;66230;-53
2023/05/17 09:19:02;;;;;;;7.00;2.00;;;;;;;26.98;34.19;99472.21;106000;1257;74104;-54
2023/05/17 09:21:30;;;;;;;7.40;2.20;;;;;;;26.92;34.79;99571.73;105878;1251;61249;-58
2023/05/17 09:24:01;;;;;;;5.50;2.30;;;;;;;26.87;33.89;99485.80;105945;1257;63428;-52
2023/05/17 09:26:38;;;;;;;7.90;2.10;;;;;;;26.82;33.83;99477.63;105894;1257;74712;-52
2023/05/17 09:29:17;;;;;;;9.60;2.10;;;;;;;26.90;34.73;99560.75;105950;1257;67207;-53
2023/05/17 09:31:45;;;;;;;4.70;1.90;;;;;;;27.10;33.90;99515.78;105874;1257;74510;-52
2023/05/17 09:34:12;;;;;;;3.70;1.80;;;;;;;27.28;34.02;99498.50;105853;1251;62798;-52
2023/05/17 09:36:42;;;;;;;5.90;1.60;;;;;;;27.60;33.19;99424.11;105749;1257;62686;-52
2023/05/17 09:39:11;;;;;;;7.20;1.40;;;;;;;27.83;32.63;99337.55;105908;1251;74514;-52
2023/05/17 09:41:41;;;;;;;5.20;1.30;;;;;;;27.92;32.92;99334.67;105924;1257;66996;-52
2023/05/17 09:44:08;;;;;;;10.30;1.70;;;;;;;28.11;32.12;99249.20;105926;1254;74200;-53
2023/05/17 09:46:46;;;;;;;6.20;1.30;;;;;;;28.20;31.66;99195.93;105906;1257;62572;-52
2023/05/17 09:49:14;;;;;;;6.00;1.40;;;;;;;28.25;31.95;99206.41;105924;1257;61553;-52
2023/05/17 09:51:43;;;;;;;4.60;2.10;;;;;;;28.39;31.82;99186.88;105897;1251;74386;-53
2023/05/17 09:54:11;;;;;;;6.70;1.50;;;;;;;28.49;32.16;99210.14;105929;1260;67096;-52
2023/05/17 09:56:38;;;;;;;10.50;1.90;;;;;;;28.53;31.87;99203.75;105904;1253;75718;-52
2023/05/17 09:59:12;;;;;;;4.30;1.80;;;;;;;28.70;31.98;99204.22;105863;1257;61833;-52
2023/05/17 10:01:41;;;;;;;9.70;1.70;;;;;;;28.80;32.06;99219.31;105896;1251;62851;-52
2023/05/17 10:04:09;;;;;;;2.60;1.40;;;;;;;28.85;31.70;99177.95;105900;1251;75809;-52
2023/05/17 10:06:38;;;;;;;5.80;1.50;;;;;;;28.92;31.40;99140.77;105921;1251;66321;-53
2023/05/17 10:09:15;;;;;;;4.60;1.50;;;;;;;28.96;30.90;99111.77;105867;1254;74446;-51
2023/05/17 10:11:45;;;;;;;6.90;1.70;;;;;;;28.86;30.59;99042.89;105920;1251;61472;-52
2023/05/17 10:14:32;;;;;;;6.40;1.80;;;;;;;28.59;31.36;99108.02;105888;1257;61736;-52
2023/05/17 10:17:01;;;;;;;3.50;1.40;;;;;;;28.40;31.87;99182.72;105864;1251;75802;-52
2023/05/17 10:19:28;;;;;;;5.10;1.50;;;;;;;28.32;31.59;99169.99;105955;1258;67171;-52
2023/05/17 10:21:57;;;;;;;7.90;1.50;;;;;;;28.24;32.11;99244.98;105702;1251;74485;-52
2023/05/17 10:24:45;;;;;;;11.10;1.60;;;;;;;28.23;31.71;99220.23;105744;1257;63014;-53
2023/05/17 10:27:12;;;;;;;6.40;1.50;;;;;;;28.28;32.06;99251.27;105919;1257;61588;-52
2023/05/17 10:29:40;;;;;;;13.90;2.30;;;;;;;28.43;32.44;99291.27;105862;1251;74168;-52
2023/05/17 10:32:08;;;;;;;4.30;1.40;;;;;;;28.42;32.05;99256.99;105919;1251;66654;-51
2023/05/17 10:34:36;;;;;;;3.90;1.60;;;;;;;28.36;32.10;99260.45;105912;1257;74872;-52
2023/05/17 10:37:04;;;;;;;8.50;1.50;;;;;;;28.37;31.87;99256.25;105864;1251;63074;-52
2023/05/17 10:39:33;;;;;;;12.00;2.30;;;;;;;28.43;31.98;99256.77;105867;1257;62544;-51
2023/05/17 10:42:02;;;;;;;12.10;1.90;;;;;;;28.48;32.11;99270.66;105927;1258;73800;-51
2023/05/17 10:44:40;;;;;;;9.90;1.30;;;;;;;28.50;31.37;99185.81;105877;1251;67036;-51
2023/05/17 10:47:08;;;;;;;12.40;1.70;;;;;;;28.52;32.57;99301.15;105883;1251;75026;-51
2023/05/17 10:49:36;;;;;;;15.20;2.20;;;;;;;28.62;33.01;99370.42;105804;1255;61533;-51
2023/05/17 10:52:16;;;;;;;35.60;3.10;;;;;;;28.81;32.21;99293.43;105919;1257;63080;-51
2023/05/17 10:54:44;;;;;;;32.10;2.20;;;;;;;28.89;31.08;99175.39;105858;1252;75299;-51
2023/05/17 10:57:38;;;;;;;17.50;2.00;;;;;;;28.69;30.95;99143.77;105992;1257;66791;-52
2023/05/17 11:00:20;;;;;;;10.20;1.60;;;;;;;28.45;31.53;99178.63;105908;1256;74179;-52
2023/05/17 11:02:49;;;;;;;31.80;4.20;;;;;;;28.54;32.67;99299.12;105886;1257;61501;-54
2023/05/17 11:05:25;;;;;;;17.20;2.40;;;;;;;28.70;31.07;99174.30;105988;1257;61423;-51
2023/05/17 11:08:14;;;;;;;20.50;1.90;;;;;;;28.73;30.81;99117.91;105969;1256;75426;-52
2023/05/17 11:11:11;;;;;;;7.20;1.60;;;;;;;28.69;30.80;99106.18;105848;1257;67256;-53
2023/05/17 11:13:53;;;;;;;30.70;2.60;;;;;;;28.80;31.50;99209.75;105882;1257;74000;-52
2023/05/17 11:16:26;;;;;;;17.70;1.90;;;;;;;29.03;30.94;99154.64;105878;1254;62258;-52
2023/05/17 11:19:04;;;;;;;6.00;1.60;;;;;;;29.07;30.60;99093.58;105897;1251;63303;-53